sensor_id;sensor_type;location;lat;lon;timestamp;temperature;humidity
48579;DHT22;34357;51.948;6.132;2022-10-16T00:01:27;12.50;90.00
48579;DHT22;34357;51.948;6.132;2022-10-16T00:03:55;12.40;90.30
48579;DHT22;34357;51.948;6.132;2022-10-16T00:06:21;12.30;90.40
48579;DHT22;34357;51.948;6.132;2022-10-16T00:08:48;12.40;90.60
48579;DHT22;34357;51.948;6.132;2022-10-16T00:11:17;12.30;90.60
48579;DHT22;34357;51.948;6.132;2022-10-16T00:13:45;12.30;91.00
48579;DHT22;34357;51.948;6.132;2022-10-16T00:16:12;12.30;91.20
48579;DHT22;34357;51.948;6.132;2022-10-16T00:18:39;12.40;91.20
48579;DHT22;34357;51.948;6.132;2022-10-16T00:21:10;12.40;91.20
48579;DHT22;34357;51.948;6.132;2022-10-16T00:23:36;12.40;91.30
48579;DHT22;34357;51.948;6.132;2022-10-16T00:26:05;12.40;91.40
48579;DHT22;34357;51.948;6.132;2022-10-16T00:28:31;12.30;91.50
48579;DHT22;34357;51.948;6.132;2022-10-16T00:30:58;12.20;91.60
48579;DHT22;34357;51.948;6.132;2022-10-16T00:33:24;12.20;91.70
48579;DHT22;34357;51.948;6.132;2022-10-16T00:35:50;12.20;92.00
48579;DHT22;34357;51.948;6.132;2022-10-16T00:38:16;12.10;91.90
48579;DHT22;34357;51.948;6.132;2022-10-16T00:40:42;12.20;92.10
48579;DHT22;34357;51.948;6.132;2022-10-16T00:43:37;12.20;92.10
48579;DHT22;34357;51.948;6.132;2022-10-16T00:46:02;12.20;92.10
48579;DHT22;34357;51.948;6.132;2022-10-16T00:48:28;12.10;92.20
48579;DHT22;34357;51.948;6.132;2022-10-16T00:50:54;12.20;92.30
48579;DHT22;34357;51.948;6.132;2022-10-16T00:53:21;12.20;92.40
48579;DHT22;34357;51.948;6.132;2022-10-16T00:55:47;12.10;92.40
48579;DHT22;34357;51.948;6.132;2022-10-16T00:58:13;12.20;92.50
48579;DHT22;34357;51.948;6.132;2022-10-16T01:00:39;12.20;92.60
48579;DHT22;34357;51.948;6.132;2022-10-16T01:03:26;12.20;92.60
48579;DHT22;34357;51.948;6.132;2022-10-16T01:08:49;12.20;92.80
48579;DHT22;34357;51.948;6.132;2022-10-16T01:11:25;12.20;92.90
48579;DHT22;34357;51.948;6.132;2022-10-16T01:13:59;12.10;92.90
48579;DHT22;34357;51.948;6.132;2022-10-16T01:16:36;12.20;93.10
48579;DHT22;34357;51.948;6.132;2022-10-16T01:19:41;12.30;93.00
48579;DHT22;34357;51.948;6.132;2022-10-16T01:22:09;12.20;92.70
48579;DHT22;34357;51.948;6.132;2022-10-16T01:24:44;12.20;92.70
48579;DHT22;34357;51.948;6.132;2022-10-16T01:27:29;12.10;92.70
48579;DHT22;34357;51.948;6.132;2022-10-16T01:34:59;12.10;92.90
48579;DHT22;34357;51.948;6.132;2022-10-16T01:37:40;12.20;93.10
48579;DHT22;34357;51.948;6.132;2022-10-16T01:40:11;12.10;92.90
48579;DHT22;34357;51.948;6.132;2022-10-16T01:42:44;12.10;93.00
48579;DHT22;34357;51.948;6.132;2022-10-16T01:45:13;12.10;93.10
48579;DHT22;34357;51.948;6.132;2022-10-16T01:47:40;12.10;93.10
48579;DHT22;34357;51.948;6.132;2022-10-16T01:50:08;12.10;93.10
48579;DHT22;34357;51.948;6.132;2022-10-16T01:52:36;12.10;93.10
48579;DHT22;34357;51.948;6.132;2022-10-16T01:55:05;12.10;93.10
48579;DHT22;34357;51.948;6.132;2022-10-16T01:57:33;12.10;93.20
48579;DHT22;34357;51.948;6.132;2022-10-16T02:00:07;12.10;93.20
48579;DHT22;34357;51.948;6.132;2022-10-16T02:02:42;12.20;93.10
48579;DHT22;34357;51.948;6.132;2022-10-16T02:05:19;12.30;93.00
48579;DHT22;34357;51.948;6.132;2022-10-16T02:07:45;12.20;92.90
48579;DHT22;34357;51.948;6.132;2022-10-16T02:10:11;12.30;92.90
48579;DHT22;34357;51.948;6.132;2022-10-16T02:12:39;12.40;92.80
48579;DHT22;34357;51.948;6.132;2022-10-16T02:15:08;12.30;92.70
48579;DHT22;34357;51.948;6.132;2022-10-16T02:17:34;12.40;92.80
48579;DHT22;34357;51.948;6.132;2022-10-16T02:20:00;12.40;92.60
48579;DHT22;34357;51.948;6.132;2022-10-16T02:22:35;12.40;92.50
48579;DHT22;34357;51.948;6.132;2022-10-16T02:25:10;12.40;92.60
48579;DHT22;34357;51.948;6.132;2022-10-16T02:27:55;12.40;92.40
48579;DHT22;34357;51.948;6.132;2022-10-16T02:32:53;12.40;92.30
48579;DHT22;34357;51.948;6.132;2022-10-16T02:35:21;12.50;92.30
48579;DHT22;34357;51.948;6.132;2022-10-16T02:37:49;12.40;92.40
48579;DHT22;34357;51.948;6.132;2022-10-16T02:40:17;12.50;92.20
48579;DHT22;34357;51.948;6.132;2022-10-16T02:42:42;12.50;92.30
48579;DHT22;34357;51.948;6.132;2022-10-16T02:45:09;12.50;92.20
48579;DHT22;34357;51.948;6.132;2022-10-16T02:47:35;12.50;92.10
48579;DHT22;34357;51.948;6.132;2022-10-16T02:50:01;12.60;92.10
48579;DHT22;34357;51.948;6.132;2022-10-16T02:52:27;12.60;91.90
48579;DHT22;34357;51.948;6.132;2022-10-16T02:54:53;12.60;91.90
48579;DHT22;34357;51.948;6.132;2022-10-16T02:57:19;12.50;91.90
48579;DHT22;34357;51.948;6.132;2022-10-16T02:59:45;12.50;92.00
48579;DHT22;34357;51.948;6.132;2022-10-16T03:02:10;12.40;92.10
48579;DHT22;34357;51.948;6.132;2022-10-16T03:04:37;12.50;92.10
48579;DHT22;34357;51.948;6.132;2022-10-16T03:07:03;12.50;92.00
48579;DHT22;34357;51.948;6.132;2022-10-16T03:09:28;12.50;91.90
48579;DHT22;34357;51.948;6.132;2022-10-16T03:11:54;12.50;92.00
48579;DHT22;34357;51.948;6.132;2022-10-16T03:14:20;12.50;91.90
48579;DHT22;34357;51.948;6.132;2022-10-16T03:16:45;12.40;91.80
48579;DHT22;34357;51.948;6.132;2022-10-16T03:19:11;12.40;92.00
48579;DHT22;34357;51.948;6.132;2022-10-16T03:21:37;12.40;91.80
48579;DHT22;34357;51.948;6.132;2022-10-16T03:24:03;12.50;91.90
48579;DHT22;34357;51.948;6.132;2022-10-16T03:26:29;12.40;91.80
48579;DHT22;34357;51.948;6.132;2022-10-16T03:28:54;12.40;92.00
48579;DHT22;34357;51.948;6.132;2022-10-16T03:31:20;12.40;92.00
48579;DHT22;34357;51.948;6.132;2022-10-16T03:33:46;12.40;92.00
48579;DHT22;34357;51.948;6.132;2022-10-16T03:36:11;12.30;91.90
48579;DHT22;34357;51.948;6.132;2022-10-16T03:38:37;12.30;92.10
48579;DHT22;34357;51.948;6.132;2022-10-16T03:41:02;12.40;92.20
48579;DHT22;34357;51.948;6.132;2022-10-16T03:43:29;12.40;92.20
48579;DHT22;34357;51.948;6.132;2022-10-16T03:45:54;12.30;92.10
48579;DHT22;34357;51.948;6.132;2022-10-16T03:48:20;12.40;92.20
48579;DHT22;34357;51.948;6.132;2022-10-16T03:50:46;12.40;92.00
48579;DHT22;34357;51.948;6.132;2022-10-16T03:53:14;12.40;92.00
48579;DHT22;34357;51.948;6.132;2022-10-16T03:55:42;12.30;92.10
48579;DHT22;34357;51.948;6.132;2022-10-16T03:58:08;12.30;92.10
48579;DHT22;34357;51.948;6.132;2022-10-16T04:00:34;12.20;92.20
48579;DHT22;34357;51.948;6.132;2022-10-16T04:03:00;12.30;92.10
48579;DHT22;34357;51.948;6.132;2022-10-16T04:05:26;12.20;92.20
48579;DHT22;34357;51.948;6.132;2022-10-16T04:07:52;12.20;92.30
48579;DHT22;34357;51.948;6.132;2022-10-16T04:10:18;12.20;92.30
48579;DHT22;34357;51.948;6.132;2022-10-16T04:12:44;12.20;92.40
48579;DHT22;34357;51.948;6.132;2022-10-16T04:15:10;12.20;92.50
48579;DHT22;34357;51.948;6.132;2022-10-16T04:17:35;12.20;92.40
48579;DHT22;34357;51.948;6.132;2022-10-16T04:20:01;12.10;92.60
48579;DHT22;34357;51.948;6.132;2022-10-16T04:22:27;12.20;92.50
48579;DHT22;34357;51.948;6.132;2022-10-16T04:24:53;12.20;92.40
48579;DHT22;34357;51.948;6.132;2022-10-16T04:27:18;12.20;92.50
48579;DHT22;34357;51.948;6.132;2022-10-16T04:29:44;12.20;92.50
48579;DHT22;34357;51.948;6.132;2022-10-16T04:32:10;12.20;92.50
48579;DHT22;34357;51.948;6.132;2022-10-16T04:34:35;12.20;92.50
48579;DHT22;34357;51.948;6.132;2022-10-16T04:37:01;12.30;92.40
48579;DHT22;34357;51.948;6.132;2022-10-16T04:39:27;12.30;92.30
48579;DHT22;34357;51.948;6.132;2022-10-16T04:41:52;12.30;92.20
48579;DHT22;34357;51.948;6.132;2022-10-16T04:44:18;12.30;92.10
48579;DHT22;34357;51.948;6.132;2022-10-16T04:46:44;12.20;92.10
48579;DHT22;34357;51.948;6.132;2022-10-16T04:49:09;12.20;92.20
48579;DHT22;34357;51.948;6.132;2022-10-16T04:51:35;12.10;92.30
48579;DHT22;34357;51.948;6.132;2022-10-16T04:54:01;12.10;92.30
48579;DHT22;34357;51.948;6.132;2022-10-16T04:56:27;12.10;92.30
48579;DHT22;34357;51.948;6.132;2022-10-16T04:58:53;12.10;92.40
48579;DHT22;34357;51.948;6.132;2022-10-16T05:01:19;12.10;92.30
48579;DHT22;34357;51.948;6.132;2022-10-16T05:03:44;12.10;92.40
48579;DHT22;34357;51.948;6.132;2022-10-16T05:06:10;12.00;92.50
48579;DHT22;34357;51.948;6.132;2022-10-16T05:08:36;12.00;92.50
48579;DHT22;34357;51.948;6.132;2022-10-16T05:11:01;12.00;92.60
48579;DHT22;34357;51.948;6.132;2022-10-16T05:13:27;12.00;92.60
48579;DHT22;34357;51.948;6.132;2022-10-16T05:15:53;11.90;92.60
48579;DHT22;34357;51.948;6.132;2022-10-16T05:18:18;11.90;92.70
48579;DHT22;34357;51.948;6.132;2022-10-16T05:20:44;11.90;92.70
48579;DHT22;34357;51.948;6.132;2022-10-16T05:23:10;11.90;92.70
48579;DHT22;34357;51.948;6.132;2022-10-16T05:25:37;12.00;92.80
48579;DHT22;34357;51.948;6.132;2022-10-16T05:28:03;12.00;92.60
48579;DHT22;34357;51.948;6.132;2022-10-16T05:30:29;12.00;92.50
48579;DHT22;34357;51.948;6.132;2022-10-16T05:32:55;12.00;92.70
48579;DHT22;34357;51.948;6.132;2022-10-16T05:35:21;12.00;92.70
48579;DHT22;34357;51.948;6.132;2022-10-16T05:37:47;11.90;92.60
48579;DHT22;34357;51.948;6.132;2022-10-16T05:40:14;11.90;92.60
48579;DHT22;34357;51.948;6.132;2022-10-16T05:42:40;11.90;92.70
48579;DHT22;34357;51.948;6.132;2022-10-16T05:45:08;11.90;92.60
48579;DHT22;34357;51.948;6.132;2022-10-16T05:47:34;11.90;92.70
48579;DHT22;34357;51.948;6.132;2022-10-16T05:50:00;11.80;92.80
48579;DHT22;34357;51.948;6.132;2022-10-16T05:52:26;11.80;93.00
48579;DHT22;34357;51.948;6.132;2022-10-16T05:54:52;11.80;92.90
48579;DHT22;34357;51.948;6.132;2022-10-16T05:57:18;11.80;92.90
48579;DHT22;34357;51.948;6.132;2022-10-16T05:59:44;11.80;93.00
48579;DHT22;34357;51.948;6.132;2022-10-16T06:02:13;11.70;93.00
48579;DHT22;34357;51.948;6.132;2022-10-16T06:04:39;11.70;93.10
48579;DHT22;34357;51.948;6.132;2022-10-16T06:07:05;11.70;93.10
48579;DHT22;34357;51.948;6.132;2022-10-16T06:09:31;11.70;93.20
48579;DHT22;34357;51.948;6.132;2022-10-16T06:11:56;11.70;93.20
48579;DHT22;34357;51.948;6.132;2022-10-16T06:14:22;11.70;93.30
48579;DHT22;34357;51.948;6.132;2022-10-16T06:16:48;11.80;93.30
48579;DHT22;34357;51.948;6.132;2022-10-16T06:19:13;11.70;93.30
48579;DHT22;34357;51.948;6.132;2022-10-16T06:21:39;11.70;93.30
48579;DHT22;34357;51.948;6.132;2022-10-16T06:24:05;11.70;93.30
48579;DHT22;34357;51.948;6.132;2022-10-16T06:26:31;11.60;93.30
48579;DHT22;34357;51.948;6.132;2022-10-16T06:28:58;11.70;93.40
48579;DHT22;34357;51.948;6.132;2022-10-16T06:31:24;11.60;93.40
48579;DHT22;34357;51.948;6.132;2022-10-16T06:33:55;11.60;93.40
48579;DHT22;34357;51.948;6.132;2022-10-16T06:36:22;11.80;93.50
48579;DHT22;34357;51.948;6.132;2022-10-16T06:38:48;11.80;93.50
48579;DHT22;34357;51.948;6.132;2022-10-16T06:41:17;11.90;93.50
48579;DHT22;34357;51.948;6.132;2022-10-16T06:43:43;11.90;93.40
48579;DHT22;34357;51.948;6.132;2022-10-16T06:46:14;12.00;93.40
48579;DHT22;34357;51.948;6.132;2022-10-16T06:48:40;12.10;93.30
48579;DHT22;34357;51.948;6.132;2022-10-16T06:51:16;12.20;93.20
48579;DHT22;34357;51.948;6.132;2022-10-16T06:53:46;12.40;93.00
48579;DHT22;34357;51.948;6.132;2022-10-16T06:56:17;12.50;92.70
48579;DHT22;34357;51.948;6.132;2022-10-16T06:58:43;12.60;92.40
48579;DHT22;34357;51.948;6.132;2022-10-16T07:01:10;12.80;92.00
48579;DHT22;34357;51.948;6.132;2022-10-16T07:03:37;13.00;91.80
48579;DHT22;34357;51.948;6.132;2022-10-16T07:06:05;13.20;90.90
48579;DHT22;34357;51.948;6.132;2022-10-16T07:08:33;13.50;90.30
48579;DHT22;34357;51.948;6.132;2022-10-16T07:11:07;13.70;89.70
48579;DHT22;34357;51.948;6.132;2022-10-16T07:13:34;13.90;88.70
48579;DHT22;34357;51.948;6.132;2022-10-16T07:16:14;14.00;88.30
48579;DHT22;34357;51.948;6.132;2022-10-16T07:18:40;13.90;88.40
48579;DHT22;34357;51.948;6.132;2022-10-16T07:21:10;13.80;88.60
48579;DHT22;34357;51.948;6.132;2022-10-16T07:23:36;13.80;88.80
48579;DHT22;34357;51.948;6.132;2022-10-16T07:26:03;13.60;89.00
48579;DHT22;34357;51.948;6.132;2022-10-16T07:28:29;13.60;89.20
48579;DHT22;34357;51.948;6.132;2022-10-16T07:30:55;13.70;89.40
48579;DHT22;34357;51.948;6.132;2022-10-16T07:33:21;13.60;89.40
48579;DHT22;34357;51.948;6.132;2022-10-16T07:35:51;13.70;89.50
48579;DHT22;34357;51.948;6.132;2022-10-16T07:38:17;13.70;89.50
48579;DHT22;34357;51.948;6.132;2022-10-16T07:40:44;13.60;89.50
48579;DHT22;34357;51.948;6.132;2022-10-16T07:43:10;13.70;89.60
48579;DHT22;34357;51.948;6.132;2022-10-16T07:45:36;13.60;89.50
48579;DHT22;34357;51.948;6.132;2022-10-16T07:48:01;13.70;89.70
48579;DHT22;34357;51.948;6.132;2022-10-16T07:50:27;13.70;89.40
48579;DHT22;34357;51.948;6.132;2022-10-16T07:52:53;13.70;89.40
48579;DHT22;34357;51.948;6.132;2022-10-16T07:55:18;13.70;89.60
48579;DHT22;34357;51.948;6.132;2022-10-16T07:57:44;13.80;89.60
48579;DHT22;34357;51.948;6.132;2022-10-16T08:00:10;13.80;89.30
48579;DHT22;34357;51.948;6.132;2022-10-16T08:02:40;13.80;89.20
48579;DHT22;34357;51.948;6.132;2022-10-16T08:05:06;13.90;89.10
48579;DHT22;34357;51.948;6.132;2022-10-16T08:07:32;14.10;88.70
48579;DHT22;34357;51.948;6.132;2022-10-16T08:09:58;14.40;88.30
48579;DHT22;34357;51.948;6.132;2022-10-16T08:12:25;14.50;87.20
48579;DHT22;34357;51.948;6.132;2022-10-16T08:14:51;14.80;86.60
48579;DHT22;34357;51.948;6.132;2022-10-16T08:17:17;14.90;85.90
48579;DHT22;34357;51.948;6.132;2022-10-16T08:19:46;15.00;85.60
48579;DHT22;34357;51.948;6.132;2022-10-16T08:22:13;15.10;85.00
48579;DHT22;34357;51.948;6.132;2022-10-16T08:24:39;15.30;85.20
48579;DHT22;34357;51.948;6.132;2022-10-16T08:27:06;15.30;84.50
48579;DHT22;34357;51.948;6.132;2022-10-16T08:29:32;15.30;84.30
48579;DHT22;34357;51.948;6.132;2022-10-16T08:31:58;15.60;83.70
48579;DHT22;34357;51.948;6.132;2022-10-16T08:34:24;15.70;83.00
48579;DHT22;34357;51.948;6.132;2022-10-16T08:36:49;15.70;83.40
48579;DHT22;34357;51.948;6.132;2022-10-16T08:39:18;15.90;82.40
48579;DHT22;34357;51.948;6.132;2022-10-16T08:47:48;16.20;81.60
48579;DHT22;34357;51.948;6.132;2022-10-16T08:50:23;16.20;81.40
48579;DHT22;34357;51.948;6.132;2022-10-16T08:52:50;16.30;80.80
48579;DHT22;34357;51.948;6.132;2022-10-16T08:55:37;16.00;81.90
48579;DHT22;34357;51.948;6.132;2022-10-16T08:58:16;16.30;81.70
48579;DHT22;34357;51.948;6.132;2022-10-16T09:00:46;16.70;80.90
48579;DHT22;34357;51.948;6.132;2022-10-16T09:03:41;16.90;80.20
48579;DHT22;34357;51.948;6.132;2022-10-16T09:12:12;16.90;79.10
48579;DHT22;34357;51.948;6.132;2022-10-16T09:15:14;16.60;79.40
48579;DHT22;34357;51.948;6.132;2022-10-16T09:18:00;16.40;78.50
48579;DHT22;34357;51.948;6.132;2022-10-16T09:23:19;16.70;79.00
48579;DHT22;34357;51.948;6.132;2022-10-16T09:25:47;16.90;78.70
48579;DHT22;34357;51.948;6.132;2022-10-16T09:28:15;16.90;78.20
48579;DHT22;34357;51.948;6.132;2022-10-16T09:30:42;17.00;77.90
48579;DHT22;34357;51.948;6.132;2022-10-16T09:33:10;16.90;77.30
48579;DHT22;34357;51.948;6.132;2022-10-16T09:35:44;16.80;77.80
48579;DHT22;34357;51.948;6.132;2022-10-16T09:38:26;16.70;78.20
48579;DHT22;34357;51.948;6.132;2022-10-16T09:40:52;16.70;78.10
48579;DHT22;34357;51.948;6.132;2022-10-16T09:43:25;16.80;77.80
48579;DHT22;34357;51.948;6.132;2022-10-16T09:48:51;16.90;77.90
48579;DHT22;34357;51.948;6.132;2022-10-16T09:51:31;16.70;77.80
48579;DHT22;34357;51.948;6.132;2022-10-16T09:56:35;16.80;77.40
48579;DHT22;34357;51.948;6.132;2022-10-16T09:59:20;16.90;76.70
48579;DHT22;34357;51.948;6.132;2022-10-16T10:01:49;16.90;76.50
48579;DHT22;34357;51.948;6.132;2022-10-16T10:04:19;16.90;76.10
48579;DHT22;34357;51.948;6.132;2022-10-16T10:06:46;17.00;76.90
48579;DHT22;34357;51.948;6.132;2022-10-16T10:09:17;17.00;76.50
48579;DHT22;34357;51.948;6.132;2022-10-16T10:11:51;16.90;76.70
48579;DHT22;34357;51.948;6.132;2022-10-16T10:14:30;16.90;76.00
48579;DHT22;34357;51.948;6.132;2022-10-16T10:17:10;17.00;77.30
48579;DHT22;34357;51.948;6.132;2022-10-16T10:19:49;17.00;77.30
48579;DHT22;34357;51.948;6.132;2022-10-16T10:28:00;17.00;76.10
48579;DHT22;34357;51.948;6.132;2022-10-16T10:36:12;17.10;75.90
48579;DHT22;34357;51.948;6.132;2022-10-16T10:38:59;17.20;76.80
48579;DHT22;34357;51.948;6.132;2022-10-16T10:41:51;17.10;74.90
48579;DHT22;34357;51.948;6.132;2022-10-16T10:50:31;17.20;74.60
48579;DHT22;34357;51.948;6.132;2022-10-16T10:56:08;17.20;74.80
48579;DHT22;34357;51.948;6.132;2022-10-16T11:06:55;17.40;72.10
48579;DHT22;34357;51.948;6.132;2022-10-16T11:09:30;17.30;71.40
48579;DHT22;34357;51.948;6.132;2022-10-16T11:17:06;17.40;69.70
48579;DHT22;34357;51.948;6.132;2022-10-16T11:19:39;17.50;69.80
48579;DHT22;34357;51.948;6.132;2022-10-16T11:22:20;17.60;72.10
48579;DHT22;34357;51.948;6.132;2022-10-16T11:27:50;17.80;68.90
48579;DHT22;34357;51.948;6.132;2022-10-16T11:30:24;17.70;69.50
48579;DHT22;34357;51.948;6.132;2022-10-16T11:35:44;17.90;70.10
48579;DHT22;34357;51.948;6.132;2022-10-16T11:41:01;18.00;70.30
48579;DHT22;34357;51.948;6.132;2022-10-16T11:43:34;18.00;68.70
48579;DHT22;34357;51.948;6.132;2022-10-16T11:46:13;18.10;69.60
48579;DHT22;34357;51.948;6.132;2022-10-16T11:51:39;18.20;66.70
48579;DHT22;34357;51.948;6.132;2022-10-16T11:54:39;18.00;66.30
48579;DHT22;34357;51.948;6.132;2022-10-16T11:57:47;18.00;64.80
48579;DHT22;34357;51.948;6.132;2022-10-16T12:00:28;18.00;65.90
48579;DHT22;34357;51.948;6.132;2022-10-16T12:08:16;18.10;65.40
48579;DHT22;34357;51.948;6.132;2022-10-16T12:10:47;18.30;65.70
48579;DHT22;34357;51.948;6.132;2022-10-16T12:13:39;18.30;65.70
48579;DHT22;34357;51.948;6.132;2022-10-16T12:18:37;18.40;64.90
48579;DHT22;34357;51.948;6.132;2022-10-16T12:21:04;18.30;65.30
48579;DHT22;34357;51.948;6.132;2022-10-16T12:23:54;18.30;65.20
48579;DHT22;34357;51.948;6.132;2022-10-16T12:26:47;18.30;65.20
48579;DHT22;34357;51.948;6.132;2022-10-16T12:31:48;18.40;65.40
48579;DHT22;34357;51.948;6.132;2022-10-16T12:34:29;18.40;65.20
48579;DHT22;34357;51.948;6.132;2022-10-16T12:37:13;18.40;64.90
48579;DHT22;34357;51.948;6.132;2022-10-16T12:39:40;18.40;63.20
48579;DHT22;34357;51.948;6.132;2022-10-16T12:44:45;18.40;65.10
48579;DHT22;34357;51.948;6.132;2022-10-16T12:47:24;18.30;63.30
48579;DHT22;34357;51.948;6.132;2022-10-16T12:50:00;18.30;63.40
48579;DHT22;34357;51.948;6.132;2022-10-16T12:52:37;18.40;64.10
48579;DHT22;34357;51.948;6.132;2022-10-16T12:55:05;18.50;63.60
48579;DHT22;34357;51.948;6.132;2022-10-16T13:00:24;18.60;63.10
48579;DHT22;34357;51.948;6.132;2022-10-16T13:08:18;18.50;65.40
48579;DHT22;34357;51.948;6.132;2022-10-16T13:18:53;18.50;62.50
48579;DHT22;34357;51.948;6.132;2022-10-16T13:21:25;18.60;65.20
48579;DHT22;34357;51.948;6.132;2022-10-16T13:27:02;18.60;64.10
48579;DHT22;34357;51.948;6.132;2022-10-16T13:29:33;18.60;64.10
48579;DHT22;34357;51.948;6.132;2022-10-16T13:32:10;18.50;62.40
48579;DHT22;34357;51.948;6.132;2022-10-16T13:34:48;18.60;63.50
48579;DHT22;34357;51.948;6.132;2022-10-16T13:37:22;18.50;63.00
48579;DHT22;34357;51.948;6.132;2022-10-16T13:39:48;18.60;62.60
48579;DHT22;34357;51.948;6.132;2022-10-16T13:42:26;18.60;62.70
48579;DHT22;34357;51.948;6.132;2022-10-16T13:44:54;18.60;62.30
48579;DHT22;34357;51.948;6.132;2022-10-16T13:47:23;18.60;61.50
48579;DHT22;34357;51.948;6.132;2022-10-16T13:50:04;18.60;62.50
48579;DHT22;34357;51.948;6.132;2022-10-16T13:52:31;18.50;63.50
48579;DHT22;34357;51.948;6.132;2022-10-16T13:54:56;18.50;62.70
48579;DHT22;34357;51.948;6.132;2022-10-16T13:57:24;18.50;63.50
48579;DHT22;34357;51.948;6.132;2022-10-16T13:59:50;18.50;63.10
48579;DHT22;34357;51.948;6.132;2022-10-16T14:02:31;18.60;64.10
48579;DHT22;34357;51.948;6.132;2022-10-16T14:05:01;18.50;63.40
48579;DHT22;34357;51.948;6.132;2022-10-16T14:07:30;18.40;63.60
48579;DHT22;34357;51.948;6.132;2022-10-16T14:10:01;18.50;63.80
48579;DHT22;34357;51.948;6.132;2022-10-16T14:12:27;18.50;63.50
48579;DHT22;34357;51.948;6.132;2022-10-16T14:14:54;18.40;63.80
48579;DHT22;34357;51.948;6.132;2022-10-16T14:17:32;18.40;64.10
48579;DHT22;34357;51.948;6.132;2022-10-16T14:20:03;18.20;63.70
48579;DHT22;34357;51.948;6.132;2022-10-16T14:22:40;18.20;66.20
48579;DHT22;34357;51.948;6.132;2022-10-16T14:27:44;18.30;65.80
48579;DHT22;34357;51.948;6.132;2022-10-16T14:30:20;18.30;66.00
48579;DHT22;34357;51.948;6.132;2022-10-16T14:33:02;18.20;64.60
48579;DHT22;34357;51.948;6.132;2022-10-16T14:35:34;18.10;66.70
48579;DHT22;34357;51.948;6.132;2022-10-16T14:38:01;18.00;66.20
48579;DHT22;34357;51.948;6.132;2022-10-16T14:40:31;18.00;68.60
48579;DHT22;34357;51.948;6.132;2022-10-16T14:42:57;18.00;66.70
48579;DHT22;34357;51.948;6.132;2022-10-16T14:45:26;18.00;67.40
48579;DHT22;34357;51.948;6.132;2022-10-16T14:47:59;18.00;66.00
48579;DHT22;34357;51.948;6.132;2022-10-16T14:50:25;18.10;67.50
48579;DHT22;34357;51.948;6.132;2022-10-16T14:52:51;18.00;66.20
48579;DHT22;34357;51.948;6.132;2022-10-16T14:55:17;17.90;67.50
48579;DHT22;34357;51.948;6.132;2022-10-16T14:57:44;17.80;68.40
48579;DHT22;34357;51.948;6.132;2022-10-16T15:00:18;17.80;68.00
48579;DHT22;34357;51.948;6.132;2022-10-16T15:02:45;17.70;67.40
48579;DHT22;34357;51.948;6.132;2022-10-16T15:05:23;17.60;69.10
48579;DHT22;34357;51.948;6.132;2022-10-16T15:07:50;17.60;69.20
48579;DHT22;34357;51.948;6.132;2022-10-16T15:10:17;17.50;68.40
48579;DHT22;34357;51.948;6.132;2022-10-16T15:12:43;17.60;68.90
48579;DHT22;34357;51.948;6.132;2022-10-16T15:17:56;17.50;69.70
48579;DHT22;34357;51.948;6.132;2022-10-16T15:20:29;17.50;68.60
48579;DHT22;34357;51.948;6.132;2022-10-16T15:22:56;17.50;68.90
48579;DHT22;34357;51.948;6.132;2022-10-16T15:25:38;17.50;70.00
48579;DHT22;34357;51.948;6.132;2022-10-16T15:28:07;17.50;70.70
48579;DHT22;34357;51.948;6.132;2022-10-16T15:30:34;17.40;71.00
48579;DHT22;34357;51.948;6.132;2022-10-16T15:33:01;17.30;70.90
48579;DHT22;34357;51.948;6.132;2022-10-16T15:35:27;17.20;71.00
48579;DHT22;34357;51.948;6.132;2022-10-16T15:37:53;17.10;71.90
48579;DHT22;34357;51.948;6.132;2022-10-16T15:40:19;16.90;72.80
48579;DHT22;34357;51.948;6.132;2022-10-16T15:42:46;16.90;73.40
48579;DHT22;34357;51.948;6.132;2022-10-16T15:45:13;16.80;73.90
48579;DHT22;34357;51.948;6.132;2022-10-16T15:47:40;16.80;74.20
48579;DHT22;34357;51.948;6.132;2022-10-16T15:50:06;16.70;74.20
48579;DHT22;34357;51.948;6.132;2022-10-16T15:52:33;16.70;74.40
48579;DHT22;34357;51.948;6.132;2022-10-16T15:54:59;16.70;74.70
48579;DHT22;34357;51.948;6.132;2022-10-16T15:57:25;16.70;74.80
48579;DHT22;34357;51.948;6.132;2022-10-16T15:59:51;16.60;75.40
48579;DHT22;34357;51.948;6.132;2022-10-16T16:02:16;16.60;75.70
48579;DHT22;34357;51.948;6.132;2022-10-16T16:04:42;16.60;75.80
48579;DHT22;34357;51.948;6.132;2022-10-16T16:07:08;16.60;75.30
48579;DHT22;34357;51.948;6.132;2022-10-16T16:09:34;16.50;75.30
48579;DHT22;34357;51.948;6.132;2022-10-16T16:11:59;16.50;75.80
48579;DHT22;34357;51.948;6.132;2022-10-16T16:14:27;16.50;76.00
48579;DHT22;34357;51.948;6.132;2022-10-16T16:16:57;16.40;76.30
48579;DHT22;34357;51.948;6.132;2022-10-16T16:19:23;16.40;76.50
48579;DHT22;34357;51.948;6.132;2022-10-16T16:21:49;16.40;76.80
48579;DHT22;34357;51.948;6.132;2022-10-16T16:24:16;16.30;77.10
48579;DHT22;34357;51.948;6.132;2022-10-16T16:26:42;16.30;77.70
48579;DHT22;34357;51.948;6.132;2022-10-16T16:29:13;16.30;77.80
48579;DHT22;34357;51.948;6.132;2022-10-16T16:31:40;16.20;77.80
48579;DHT22;34357;51.948;6.132;2022-10-16T16:34:06;16.10;78.50
48579;DHT22;34357;51.948;6.132;2022-10-16T16:36:32;16.00;78.90
48579;DHT22;34357;51.948;6.132;2022-10-16T16:38:58;16.00;79.00
48579;DHT22;34357;51.948;6.132;2022-10-16T16:41:25;16.00;79.30
48579;DHT22;34357;51.948;6.132;2022-10-16T16:43:53;15.90;79.40
48579;DHT22;34357;51.948;6.132;2022-10-16T16:46:20;15.90;79.60
48579;DHT22;34357;51.948;6.132;2022-10-16T16:48:46;15.90;79.70
48579;DHT22;34357;51.948;6.132;2022-10-16T16:51:14;15.80;80.20
48579;DHT22;34357;51.948;6.132;2022-10-16T16:53:43;15.70;80.20
48579;DHT22;34357;51.948;6.132;2022-10-16T16:56:09;15.70;80.40
48579;DHT22;34357;51.948;6.132;2022-10-16T16:58:35;15.60;80.70
48579;DHT22;34357;51.948;6.132;2022-10-16T17:01:02;15.60;81.00
48579;DHT22;34357;51.948;6.132;2022-10-16T17:03:29;15.50;81.20
48579;DHT22;34357;51.948;6.132;2022-10-16T17:06:06;15.50;81.20
48579;DHT22;34357;51.948;6.132;2022-10-16T17:08:34;15.50;81.90
48579;DHT22;34357;51.948;6.132;2022-10-16T17:11:00;15.40;82.10
48579;DHT22;34357;51.948;6.132;2022-10-16T17:13:32;15.40;82.40
48579;DHT22;34357;51.948;6.132;2022-10-16T17:16:00;15.30;82.60
48579;DHT22;34357;51.948;6.132;2022-10-16T17:18:26;15.20;82.90
48579;DHT22;34357;51.948;6.132;2022-10-16T17:20:52;15.20;83.00
48579;DHT22;34357;51.948;6.132;2022-10-16T17:23:19;15.20;83.10
48579;DHT22;34357;51.948;6.132;2022-10-16T17:25:45;15.10;83.10
48579;DHT22;34357;51.948;6.132;2022-10-16T17:28:12;15.20;83.20
48579;DHT22;34357;51.948;6.132;2022-10-16T17:30:39;15.20;83.30
48579;DHT22;34357;51.948;6.132;2022-10-16T17:33:07;15.20;83.30
48579;DHT22;34357;51.948;6.132;2022-10-16T17:35:37;15.20;83.30
48579;DHT22;34357;51.948;6.132;2022-10-16T17:38:03;15.20;83.40